DW9004 Weather Reports


Display with metric or nautical units.
time (UTC)temp
F
wind
direction
speed
MPH
gust
MPH
rain 1hr
in
rain 24hr
in
rain mn
in
humidity
%
barometer
mb
20210731044525 90 46 2.0 6.0 0.00 0.00 0.00 34 1006.0
20210731043024 90 292 0.0 3.0 0.00 0.00 0.00 36 1006.0
20210731041510 91 347 1.0 2.0 0.00 0.00 0.00 32 1005.8
20210731040005 92 30 0.0 2.0 0.00 0.00 0.00 32 1005.5
20210731034628 94 69 0.0 1.0 0.00 0.00 0.00 30 1005.4
20210731033118 96 219 0.0 3.0 0.00 0.00 0.00 27 1005.5
20210731030135 100 360 0.0 8.0 0.00 0.00 0.00 20 1005.3
20210731024641 101 331 5.0 11.0 0.00 0.00 0.00 18 1005.1
20210731023126 102 341 7.0 14.0 0.00 0.00 0.00 17 1005.0
20210731021657 102 327 8.0 12.0 0.00 0.00 0.00 18 1005.0
20210731020229 102 353 9.0 15.0 0.00 0.00 0.00 17 1004.9
20210731014618 103 326 6.0 12.0 0.00 0.00 0.00 17 1005.0
20210731013106 103 18 6.0 13.0 0.00 0.00 0.00 17 1005.1
20210731011610 103 339 6.0 12.0 0.00 0.00 0.00 17 1005.2
20210731010039 104 356 6.0 11.0 0.00 0.00 0.00 17 1005.3
20210731004617 104 19 7.0 13.0 0.00 0.00 0.00 17 1005.5
20210731003045 104 332 3.0 14.0 0.00 0.00 0.00 16 1005.5
20210731001542 104 6 8.0 12.0 0.00 0.00 0.00 15 1005.7
20210731000110 104 41 1.0 9.0 0.00 0.00 0.00 17 1005.8
20210730234517 103 10 3.0 9.0 0.00 0.00 0.00 16 1006.0
20210730233022 103 329 7.0 14.0 0.00 0.00 0.00 17 1006.1
20210730231515 103 336 7.0 14.0 0.00 0.00 0.00 17 1006.2
20210730230026 104 354 7.0 12.0 0.00 0.00 0.00 16 1006.3
20210730224509 105 54 4.0 12.0 0.00 0.00 0.00 16 1006.5
20210730223022 104 55 4.0 11.0 0.00 0.00 0.00 17 1006.6
20210730221724 103 340 2.0 6.0 0.00 0.00 0.00 17 1006.7
20210730220144 102 94 2.0 10.0 0.00 0.00 0.00 19 1006.8
20210730214549 102 32 3.0 12.0 0.00 0.00 0.00 15 1007.1
20210730213041 101 46 1.0 11.0 0.00 0.00 0.00 22 1007.2
20210730211613 101 62 0.0 13.0 0.00 0.00 0.00 21 1007.5
20210730210101 101 336 4.0 10.0 0.00 0.00 0.00 18 1007.7
20210730204604 101 31 5.0 18.0 0.00 0.00 0.00 19 1007.9
20210730203119 100 59 3.0 10.0 0.00 0.00 0.00 21 1008.0
20210730201534 100 64 1.0 6.0 0.00 0.00 0.00 20 1008.3
20210730194511 98 323 6.0 15.0 0.00 0.00 0.00 22 1008.5
20210730193012 97 324 7.0 16.0 0.00 0.00 0.00 22 1008.7
20210730191531 97 31 2.0 5.0 0.00 0.00 0.00 28 1008.9
20210730190002 96 140 1.0 4.0 0.00 0.00 0.00 30 1009.1
20210730184720 94 195 2.0 5.0 0.00 0.00 0.00 30 1009.2
20210730183156 90 197 0.0 4.0 0.00 0.00 0.00 37 1009.3
20210730181649 90 261 0.0 6.0 0.00 0.00 0.00 39 1009.5
20210730180202 90 268 2.0 6.0 0.00 0.00 0.00 37 1009.6
20210730174559 89 19 0.0 2.0 0.00 0.00 0.00 43 1009.8
20210730173119 86 255 0.0 4.0 0.00 0.00 0.00 44 1010.1
20210730171629 84 303 0.0 2.0 0.00 0.00 0.00 46 1010.1
20210730170107 83 301 0.0 3.0 0.00 0.00 0.00 45 1010.0
20210730164624 82 14 0.0 2.0 0.00 0.00 0.00 46 1010.0
20210730163130 81 346 0.0 2.0 0.00 0.00 0.00 46 1010.1
20210730161531 81 230 0.0 2.0 0.00 0.00 0.00 44 1010.2
20210730160124 83 280 2.0 5.0 0.00 0.00 0.00 42 1010.1
20210730154523 84 183 0.0 4.0 0.00 0.00 0.00 46 1010.0
20210730153020 80 236 0.0 1.0 0.00 0.00 0.00 51 1010.0
20210730151522 78 217 1.0 5.0 0.00 0.00 0.00 50 1010.0
20210730150001 75 246 0.0 3.0 0.00 0.00 0.00 57 1009.7
20210730144716 74 190 0.0 0.0 0.00 0.00 0.00 60 1009.6
20210730143220 74 124 0.0 1.0 0.00 0.00 0.00 63 1009.5
20210730141702 73 17 0.0 1.0 0.00 0.00 0.00 61 1009.5
20210730140106 71 17 0.0 0.0 0.00 0.00 0.00 58 1009.5
20210730133253 70 96 0.0 0.0 0.00 0.00 0.00 59 1009.2
20210730131610 71 140 0.0 0.0 0.00 0.00 0.00 55 1008.9
20210730130041 71 228 0.0 0.0 0.00 0.00 0.00 53 1008.7
20210730124609 72 228 0.0 2.0 0.00 0.00 0.00 50 1008.8
20210730123103 71 348 0.0 1.0 0.00 0.00 0.00 51 1008.8
20210730121548 70 21 0.0 1.0 0.00 0.00 0.00 51 1008.8
20210730120211 71 351 0.0 1.0 0.00 0.00 0.00 51 1008.7
20210730114551 72 284 0.0 0.0 0.00 0.00 0.00 50 1008.7
20210730113038 72 284 0.0 0.0 0.00 0.00 0.00 46 1008.6
20210730111606 71 21 0.0 1.0 0.00 0.00 0.00 47 1008.5
20210730110029 71 21 0.0 1.0 0.00 0.00 0.00 49 1008.4
20210730104556 73 358 0.0 1.0 0.00 0.00 0.00 48 1008.3
20210730103053 73 341 0.0 1.0 0.00 0.00 0.00 45 1008.4
20210730101509 74 1 0.0 1.0 0.00 0.00 0.00 47 1008.5
20210730100007 75 109 0.0 1.0 0.00 0.00 0.00 45 1008.4
20210730094501 76 202 0.0 1.0 0.00 0.00 0.00 43 1008.2
20210730091652 76 332 0.0 0.0 0.00 0.00 0.00 44 1008.1
20210730090148 77 16 0.0 2.0 0.00 0.00 0.00 44 1008.2
20210730084716 77 322 0.0 2.0 0.00 0.00 0.00 42 1008.3
20210730083123 76 325 0.0 1.0 0.00 0.00 0.00 44 1008.2
20210730081546 77 329 0.0 2.0 0.00 0.00 0.00 44 1008.2
20210730080041 77 311 1.0 2.0 0.00 0.00 0.00 46 1008.1
20210730074540 80 145 0.0 0.0 0.00 0.00 0.00 43 1007.9
20210730073100 82 327 0.0 1.0 0.00 0.00 0.00 36 1007.6
20210730071549 82 337 0.0 1.0 0.00 0.00 0.00 36 1007.2
20210730070043 82 358 0.0 1.0 0.00 0.00 0.00 36 1007.1
20210730064551 85 235 0.0 2.0 0.00 0.00 0.00 32 1006.9
20210730061543 83 12 2.0 5.0 0.00 0.00 0.00 36 1007.2
20210730060019 82 334 0.0 0.0 0.00 0.00 0.00 37 1007.6
20210730054512 81 334 0.0 1.0 0.00 0.00 0.00 37 1007.8
20210730053009 82 333 0.0 1.0 0.00 0.00 0.00 38 1007.9
20210730051512 82 333 1.0 2.0 0.00 0.00 0.00 39 1008.0
20210730050018 82 340 0.0 2.0 0.00 0.00 0.00 39 1008.1